sensor_id;sensor_type;location;lat;lon;timestamp;temperature;humidity
21176;DHT22;10746;50.178;8.186;2023-06-24T00:00:50;14.50;99.90
21176;DHT22;10746;50.178;8.186;2023-06-24T00:03:17;14.50;99.90
21176;DHT22;10746;50.178;8.186;2023-06-24T00:05:44;14.40;99.90
21176;DHT22;10746;50.178;8.186;2023-06-24T00:08:15;14.50;99.90
21176;DHT22;10746;50.178;8.186;2023-06-24T00:10:44;14.40;99.90
21176;DHT22;10746;50.178;8.186;2023-06-24T00:13:12;14.30;99.90
21176;DHT22;10746;50.178;8.186;2023-06-24T00:15:39;14.20;99.90
21176;DHT22;10746;50.178;8.186;2023-06-24T00:18:08;14.30;99.90
21176;DHT22;10746;50.178;8.186;2023-06-24T00:20:35;14.30;99.90
21176;DHT22;10746;50.178;8.186;2023-06-24T00:23:01;14.30;99.90
21176;DHT22;10746;50.178;8.186;2023-06-24T00:25:28;14.30;99.90
21176;DHT22;10746;50.178;8.186;2023-06-24T00:27:55;14.30;99.90
21176;DHT22;10746;50.178;8.186;2023-06-24T00:30:26;14.40;99.90
21176;DHT22;10746;50.178;8.186;2023-06-24T00:32:53;14.30;99.90
21176;DHT22;10746;50.178;8.186;2023-06-24T00:35:20;14.40;99.90
21176;DHT22;10746;50.178;8.186;2023-06-24T00:37:46;14.30;99.90
21176;DHT22;10746;50.178;8.186;2023-06-24T00:40:13;14.20;99.90
21176;DHT22;10746;50.178;8.186;2023-06-24T00:42:44;14.10;99.90
21176;DHT22;10746;50.178;8.186;2023-06-24T00:45:12;14.10;99.90
21176;DHT22;10746;50.178;8.186;2023-06-24T00:47:40;14.10;99.90
21176;DHT22;10746;50.178;8.186;2023-06-24T00:50:08;14.10;99.90
21176;DHT22;10746;50.178;8.186;2023-06-24T00:52:37;13.90;99.90
21176;DHT22;10746;50.178;8.186;2023-06-24T00:55:08;14.00;99.90
21176;DHT22;10746;50.178;8.186;2023-06-24T00:57:35;14.10;99.90
21176;DHT22;10746;50.178;8.186;2023-06-24T01:00:05;14.10;99.90
21176;DHT22;10746;50.178;8.186;2023-06-24T01:02:34;14.10;99.90
21176;DHT22;10746;50.178;8.186;2023-06-24T01:05:04;14.20;99.90
21176;DHT22;10746;50.178;8.186;2023-06-24T01:07:34;14.30;99.90
21176;DHT22;10746;50.178;8.186;2023-06-24T01:10:02;14.20;99.90
21176;DHT22;10746;50.178;8.186;2023-06-24T01:12:33;14.20;99.90
21176;DHT22;10746;50.178;8.186;2023-06-24T01:15:00;14.20;99.90
21176;DHT22;10746;50.178;8.186;2023-06-24T01:17:31;14.10;99.90
21176;DHT22;10746;50.178;8.186;2023-06-24T01:20:06;14.10;99.90
21176;DHT22;10746;50.178;8.186;2023-06-24T01:22:59;14.10;99.90
21176;DHT22;10746;50.178;8.186;2023-06-24T01:25:47;14.00;99.90
21176;DHT22;10746;50.178;8.186;2023-06-24T01:28:33;14.00;99.90
21176;DHT22;10746;50.178;8.186;2023-06-24T01:34:03;13.90;99.90
21176;DHT22;10746;50.178;8.186;2023-06-24T01:36:34;13.70;99.90
21176;DHT22;10746;50.178;8.186;2023-06-24T01:39:05;13.70;99.90
21176;DHT22;10746;50.178;8.186;2023-06-24T01:41:39;13.60;99.90
21176;DHT22;10746;50.178;8.186;2023-06-24T01:44:08;13.60;99.90
21176;DHT22;10746;50.178;8.186;2023-06-24T01:46:36;13.70;99.90
21176;DHT22;10746;50.178;8.186;2023-06-24T01:49:07;13.60;99.90
21176;DHT22;10746;50.178;8.186;2023-06-24T01:51:38;13.50;99.90
21176;DHT22;10746;50.178;8.186;2023-06-24T01:54:11;13.50;99.90
21176;DHT22;10746;50.178;8.186;2023-06-24T01:56:39;13.40;99.90
21176;DHT22;10746;50.178;8.186;2023-06-24T01:59:09;13.40;99.90
21176;DHT22;10746;50.178;8.186;2023-06-24T02:01:37;13.40;99.90
21176;DHT22;10746;50.178;8.186;2023-06-24T02:04:08;13.40;99.90
21176;DHT22;10746;50.178;8.186;2023-06-24T02:06:35;13.30;99.90
21176;DHT22;10746;50.178;8.186;2023-06-24T02:09:02;13.30;99.90
21176;DHT22;10746;50.178;8.186;2023-06-24T02:11:31;13.30;99.90
21176;DHT22;10746;50.178;8.186;2023-06-24T02:14:01;13.30;99.90
21176;DHT22;10746;50.178;8.186;2023-06-24T02:23:14;13.10;99.90
21176;DHT22;10746;50.178;8.186;2023-06-24T02:25:41;13.10;99.90
21176;DHT22;10746;50.178;8.186;2023-06-24T02:34:52;13.30;99.90
21176;DHT22;10746;50.178;8.186;2023-06-24T02:37:19;13.20;99.90
21176;DHT22;10746;50.178;8.186;2023-06-24T02:39:47;13.10;99.90
21176;DHT22;10746;50.178;8.186;2023-06-24T02:42:14;13.10;99.90
21176;DHT22;10746;50.178;8.186;2023-06-24T02:44:42;13.00;99.90
21176;DHT22;10746;50.178;8.186;2023-06-24T02:47:10;13.00;99.90
21176;DHT22;10746;50.178;8.186;2023-06-24T02:49:39;13.10;99.90
21176;DHT22;10746;50.178;8.186;2023-06-24T02:52:06;13.10;99.90
21176;DHT22;10746;50.178;8.186;2023-06-24T02:54:33;13.10;99.90
21176;DHT22;10746;50.178;8.186;2023-06-24T02:57:02;12.90;99.90
21176;DHT22;10746;50.178;8.186;2023-06-24T02:59:31;12.90;99.90
21176;DHT22;10746;50.178;8.186;2023-06-24T03:08:42;13.00;99.90
21176;DHT22;10746;50.178;8.186;2023-06-24T03:11:12;13.00;99.90
21176;DHT22;10746;50.178;8.186;2023-06-24T03:13:41;13.00;99.90
21176;DHT22;10746;50.178;8.186;2023-06-24T03:16:07;12.90;99.90
21176;DHT22;10746;50.178;8.186;2023-06-24T03:18:37;12.80;99.90
21176;DHT22;10746;50.178;8.186;2023-06-24T03:21:05;12.80;99.90
21176;DHT22;10746;50.178;8.186;2023-06-24T03:23:32;12.70;99.90
21176;DHT22;10746;50.178;8.186;2023-06-24T03:25:59;12.80;99.90
21176;DHT22;10746;50.178;8.186;2023-06-24T03:28:25;12.80;99.90
21176;DHT22;10746;50.178;8.186;2023-06-24T03:30:53;12.90;99.90
21176;DHT22;10746;50.178;8.186;2023-06-24T03:33:20;12.80;99.90
21176;DHT22;10746;50.178;8.186;2023-06-24T03:35:47;12.80;99.90
21176;DHT22;10746;50.178;8.186;2023-06-24T03:38:14;12.80;99.90
21176;DHT22;10746;50.178;8.186;2023-06-24T03:40:40;12.80;99.90
21176;DHT22;10746;50.178;8.186;2023-06-24T03:43:07;12.80;99.90
21176;DHT22;10746;50.178;8.186;2023-06-24T03:45:34;12.90;99.90
21176;DHT22;10746;50.178;8.186;2023-06-24T03:48:03;12.90;99.90
21176;DHT22;10746;50.178;8.186;2023-06-24T03:50:30;13.00;99.90
21176;DHT22;10746;50.178;8.186;2023-06-24T03:52:57;12.90;99.90
21176;DHT22;10746;50.178;8.186;2023-06-24T03:55:24;13.00;99.90
21176;DHT22;10746;50.178;8.186;2023-06-24T03:57:50;13.00;99.90
21176;DHT22;10746;50.178;8.186;2023-06-24T04:00:17;13.10;99.90
21176;DHT22;10746;50.178;8.186;2023-06-24T04:02:46;13.00;99.90
21176;DHT22;10746;50.178;8.186;2023-06-24T04:05:15;13.00;99.90
21176;DHT22;10746;50.178;8.186;2023-06-24T04:07:42;13.10;99.90
21176;DHT22;10746;50.178;8.186;2023-06-24T04:10:12;13.10;99.90
21176;DHT22;10746;50.178;8.186;2023-06-24T04:12:39;13.20;99.90
21176;DHT22;10746;50.178;8.186;2023-06-24T04:15:07;13.30;99.90
21176;DHT22;10746;50.178;8.186;2023-06-24T04:17:34;13.50;99.90
21176;DHT22;10746;50.178;8.186;2023-06-24T04:20:00;13.60;99.90
21176;DHT22;10746;50.178;8.186;2023-06-24T04:22:36;13.90;99.90
21176;DHT22;10746;50.178;8.186;2023-06-24T04:25:04;14.10;99.90
21176;DHT22;10746;50.178;8.186;2023-06-24T04:27:31;14.10;99.90
21176;DHT22;10746;50.178;8.186;2023-06-24T04:29:58;14.10;99.90
21176;DHT22;10746;50.178;8.186;2023-06-24T04:32:25;14.20;99.90
21176;DHT22;10746;50.178;8.186;2023-06-24T04:34:52;14.30;99.90
21176;DHT22;10746;50.178;8.186;2023-06-24T04:37:19;14.40;99.90
21176;DHT22;10746;50.178;8.186;2023-06-24T04:39:47;14.60;99.90
21176;DHT22;10746;50.178;8.186;2023-06-24T04:42:14;14.70;99.90
21176;DHT22;10746;50.178;8.186;2023-06-24T04:44:41;14.80;99.90
21176;DHT22;10746;50.178;8.186;2023-06-24T04:47:07;15.00;99.90
21176;DHT22;10746;50.178;8.186;2023-06-24T04:49:34;14.90;99.90
21176;DHT22;10746;50.178;8.186;2023-06-24T04:52:01;15.10;99.90
21176;DHT22;10746;50.178;8.186;2023-06-24T04:54:28;15.20;99.90
21176;DHT22;10746;50.178;8.186;2023-06-24T04:56:56;15.10;99.90
21176;DHT22;10746;50.178;8.186;2023-06-24T04:59:23;15.20;99.90
21176;DHT22;10746;50.178;8.186;2023-06-24T05:01:49;15.40;99.90
21176;DHT22;10746;50.178;8.186;2023-06-24T05:04:16;15.50;99.90
21176;DHT22;10746;50.178;8.186;2023-06-24T05:06:43;15.30;99.90
21176;DHT22;10746;50.178;8.186;2023-06-24T05:09:10;15.20;99.90
21176;DHT22;10746;50.178;8.186;2023-06-24T05:11:39;15.50;99.90
21176;DHT22;10746;50.178;8.186;2023-06-24T05:14:07;15.80;99.90
21176;DHT22;10746;50.178;8.186;2023-06-24T05:16:34;16.10;99.90
21176;DHT22;10746;50.178;8.186;2023-06-24T05:19:00;16.30;99.90
21176;DHT22;10746;50.178;8.186;2023-06-24T05:21:27;16.40;99.90
21176;DHT22;10746;50.178;8.186;2023-06-24T05:23:54;16.50;99.90
21176;DHT22;10746;50.178;8.186;2023-06-24T05:26:21;16.70;99.90
21176;DHT22;10746;50.178;8.186;2023-06-24T05:28:47;16.90;99.90
21176;DHT22;10746;50.178;8.186;2023-06-24T05:31:15;17.10;99.90
21176;DHT22;10746;50.178;8.186;2023-06-24T05:33:42;17.30;99.90
21176;DHT22;10746;50.178;8.186;2023-06-24T05:36:09;17.50;99.90
21176;DHT22;10746;50.178;8.186;2023-06-24T05:38:36;17.60;99.90
21176;DHT22;10746;50.178;8.186;2023-06-24T05:41:02;17.70;99.90
21176;DHT22;10746;50.178;8.186;2023-06-24T05:43:29;17.80;99.90
21176;DHT22;10746;50.178;8.186;2023-06-24T05:45:56;17.90;99.90
21176;DHT22;10746;50.178;8.186;2023-06-24T05:48:24;18.10;99.90
21176;DHT22;10746;50.178;8.186;2023-06-24T05:50:50;18.00;99.90
21176;DHT22;10746;50.178;8.186;2023-06-24T05:53:17;18.30;99.90
21176;DHT22;10746;50.178;8.186;2023-06-24T05:55:44;18.50;99.90
21176;DHT22;10746;50.178;8.186;2023-06-24T05:58:11;18.80;99.90
21176;DHT22;10746;50.178;8.186;2023-06-24T06:00:37;19.00;99.90
21176;DHT22;10746;50.178;8.186;2023-06-24T06:03:04;19.20;99.90
21176;DHT22;10746;50.178;8.186;2023-06-24T06:05:32;19.30;99.90
21176;DHT22;10746;50.178;8.186;2023-06-24T06:07:59;19.40;99.90
21176;DHT22;10746;50.178;8.186;2023-06-24T06:10:26;19.60;99.90
21176;DHT22;10746;50.178;8.186;2023-06-24T06:12:53;19.80;99.90
21176;DHT22;10746;50.178;8.186;2023-06-24T06:15:19;20.00;99.90
21176;DHT22;10746;50.178;8.186;2023-06-24T06:17:46;20.50;99.90
21176;DHT22;10746;50.178;8.186;2023-06-24T06:20:13;20.70;99.90
21176;DHT22;10746;50.178;8.186;2023-06-24T06:22:41;20.90;99.90
21176;DHT22;10746;50.178;8.186;2023-06-24T06:25:08;21.10;99.90
21176;DHT22;10746;50.178;8.186;2023-06-24T06:27:35;21.30;99.90
21176;DHT22;10746;50.178;8.186;2023-06-24T06:30:03;21.30;99.90
21176;DHT22;10746;50.178;8.186;2023-06-24T06:32:30;21.40;99.90
21176;DHT22;10746;50.178;8.186;2023-06-24T06:34:57;21.60;99.90
21176;DHT22;10746;50.178;8.186;2023-06-24T06:37:23;21.80;99.90
21176;DHT22;10746;50.178;8.186;2023-06-24T06:39:51;22.00;99.90
21176;DHT22;10746;50.178;8.186;2023-06-24T06:42:18;22.00;99.90
21176;DHT22;10746;50.178;8.186;2023-06-24T06:44:45;22.30;99.90
21176;DHT22;10746;50.178;8.186;2023-06-24T06:47:11;22.40;99.90
21176;DHT22;10746;50.178;8.186;2023-06-24T06:49:38;22.40;99.90
21176;DHT22;10746;50.178;8.186;2023-06-24T06:52:06;22.40;99.90
21176;DHT22;10746;50.178;8.186;2023-06-24T06:54:33;22.30;99.90
21176;DHT22;10746;50.178;8.186;2023-06-24T06:57:02;22.20;99.90
21176;DHT22;10746;50.178;8.186;2023-06-24T06:59:29;22.50;99.90
21176;DHT22;10746;50.178;8.186;2023-06-24T07:01:56;22.60;99.90
21176;DHT22;10746;50.178;8.186;2023-06-24T07:04:22;22.80;99.90
21176;DHT22;10746;50.178;8.186;2023-06-24T07:06:49;22.90;99.90
21176;DHT22;10746;50.178;8.186;2023-06-24T07:09:18;22.80;99.90
21176;DHT22;10746;50.178;8.186;2023-06-24T07:11:44;23.00;99.90
21176;DHT22;10746;50.178;8.186;2023-06-24T07:14:13;22.90;99.90
21176;DHT22;10746;50.178;8.186;2023-06-24T07:16:39;23.10;99.90
21176;DHT22;10746;50.178;8.186;2023-06-24T07:19:06;23.20;99.90
21176;DHT22;10746;50.178;8.186;2023-06-24T07:21:33;23.20;99.90
21176;DHT22;10746;50.178;8.186;2023-06-24T07:23:59;23.30;99.90
21176;DHT22;10746;50.178;8.186;2023-06-24T07:26:26;23.30;99.90
21176;DHT22;10746;50.178;8.186;2023-06-24T07:28:56;23.40;99.90
21176;DHT22;10746;50.178;8.186;2023-06-24T07:31:24;23.40;99.90
21176;DHT22;10746;50.178;8.186;2023-06-24T07:33:51;23.30;99.90
21176;DHT22;10746;50.178;8.186;2023-06-24T07:36:17;23.30;99.90
21176;DHT22;10746;50.178;8.186;2023-06-24T07:38:44;23.20;99.90
21176;DHT22;10746;50.178;8.186;2023-06-24T07:41:11;23.20;99.90
21176;DHT22;10746;50.178;8.186;2023-06-24T07:43:37;23.30;99.90
21176;DHT22;10746;50.178;8.186;2023-06-24T07:46:04;23.50;99.90
21176;DHT22;10746;50.178;8.186;2023-06-24T07:48:33;23.60;99.90
21176;DHT22;10746;50.178;8.186;2023-06-24T07:50:59;23.80;99.90
21176;DHT22;10746;50.178;8.186;2023-06-24T07:53:26;23.80;99.90
21176;DHT22;10746;50.178;8.186;2023-06-24T07:55:53;23.70;99.90
21176;DHT22;10746;50.178;8.186;2023-06-24T07:58:20;23.70;99.90
21176;DHT22;10746;50.178;8.186;2023-06-24T08:00:47;23.50;99.90
21176;DHT22;10746;50.178;8.186;2023-06-24T08:03:13;23.90;99.90
21176;DHT22;10746;50.178;8.186;2023-06-24T08:05:42;24.00;99.90
21176;DHT22;10746;50.178;8.186;2023-06-24T08:08:09;24.00;99.90
21176;DHT22;10746;50.178;8.186;2023-06-24T08:10:36;23.80;99.90
21176;DHT22;10746;50.178;8.186;2023-06-24T08:13:02;23.70;99.90
21176;DHT22;10746;50.178;8.186;2023-06-24T08:15:29;23.90;99.90
21176;DHT22;10746;50.178;8.186;2023-06-24T08:17:56;23.80;99.90
21176;DHT22;10746;50.178;8.186;2023-06-24T08:20:23;23.70;99.90
21176;DHT22;10746;50.178;8.186;2023-06-24T08:22:51;23.50;99.90
21176;DHT22;10746;50.178;8.186;2023-06-24T08:25:18;23.50;99.90
21176;DHT22;10746;50.178;8.186;2023-06-24T08:27:45;23.60;99.90
21176;DHT22;10746;50.178;8.186;2023-06-24T08:30:13;23.70;99.90
21176;DHT22;10746;50.178;8.186;2023-06-24T08:32:40;23.90;99.90
21176;DHT22;10746;50.178;8.186;2023-06-24T08:35:07;23.50;99.90
21176;DHT22;10746;50.178;8.186;2023-06-24T08:37:35;23.40;99.90
21176;DHT22;10746;50.178;8.186;2023-06-24T08:40:04;23.40;99.90
21176;DHT22;10746;50.178;8.186;2023-06-24T08:42:31;23.00;99.90
21176;DHT22;10746;50.178;8.186;2023-06-24T08:44:58;23.40;99.90
21176;DHT22;10746;50.178;8.186;2023-06-24T08:47:25;23.30;99.90
21176;DHT22;10746;50.178;8.186;2023-06-24T08:50:01;23.50;99.90
21176;DHT22;10746;50.178;8.186;2023-06-24T08:52:31;23.80;99.90
21176;DHT22;10746;50.178;8.186;2023-06-24T08:54:59;24.30;99.90
21176;DHT22;10746;50.178;8.186;2023-06-24T08:57:28;24.40;99.90
21176;DHT22;10746;50.178;8.186;2023-06-24T08:59:55;23.90;99.90
21176;DHT22;10746;50.178;8.186;2023-06-24T09:02:22;23.60;99.90
21176;DHT22;10746;50.178;8.186;2023-06-24T09:04:51;23.70;99.90
21176;DHT22;10746;50.178;8.186;2023-06-24T09:07:25;24.00;99.90
21176;DHT22;10746;50.178;8.186;2023-06-24T09:09:52;24.30;99.90
21176;DHT22;10746;50.178;8.186;2023-06-24T09:12:19;24.30;99.90
21176;DHT22;10746;50.178;8.186;2023-06-24T09:14:49;24.40;99.90
21176;DHT22;10746;50.178;8.186;2023-06-24T09:17:17;24.50;99.90
21176;DHT22;10746;50.178;8.186;2023-06-24T09:19:43;24.50;99.90
21176;DHT22;10746;50.178;8.186;2023-06-24T09:22:10;24.80;99.90
21176;DHT22;10746;50.178;8.186;2023-06-24T09:24:42;24.60;99.90
21176;DHT22;10746;50.178;8.186;2023-06-24T09:27:12;25.00;99.90
21176;DHT22;10746;50.178;8.186;2023-06-24T09:29:39;25.20;99.90
21176;DHT22;10746;50.178;8.186;2023-06-24T09:32:09;25.10;99.90
21176;DHT22;10746;50.178;8.186;2023-06-24T09:34:36;24.90;99.90
21176;DHT22;10746;50.178;8.186;2023-06-24T09:37:03;25.00;99.90
21176;DHT22;10746;50.178;8.186;2023-06-24T09:39:37;24.70;99.90
21176;DHT22;10746;50.178;8.186;2023-06-24T09:42:05;24.30;99.90
21176;DHT22;10746;50.178;8.186;2023-06-24T09:44:33;24.20;99.90
21176;DHT22;10746;50.178;8.186;2023-06-24T09:47:00;24.30;99.90
21176;DHT22;10746;50.178;8.186;2023-06-24T09:49:29;24.90;99.90
21176;DHT22;10746;50.178;8.186;2023-06-24T09:51:56;25.00;99.90
21176;DHT22;10746;50.178;8.186;2023-06-24T09:54:25;25.00;99.90
21176;DHT22;10746;50.178;8.186;2023-06-24T09:56:54;25.20;99.90
21176;DHT22;10746;50.178;8.186;2023-06-24T09:59:21;25.30;99.90
21176;DHT22;10746;50.178;8.186;2023-06-24T10:01:52;25.70;99.90
21176;DHT22;10746;50.178;8.186;2023-06-24T10:04:20;25.40;99.90
21176;DHT22;10746;50.178;8.186;2023-06-24T10:06:48;25.80;99.90
